Time;durP1;ratioP1;P1;durP2;ratioP2;P2;SDS_P1;SDS_P2;PMS_P1;PMS_P2;Temp;Humidity;BMP_temperature;BMP_pressure;BME280_temperature;BME280_humidity;BME280_pressure;Samples;Min_cycle;Max_cycle;Signal;HPM_P1;HPM_P2
2023/09/04 00:00:41;;;;;;;;;;;20.60;70.20;;;;;;5073802;28;19916;-70
2023/09/04 00:03:07;;;;;;;;;;;20.60;70.10;;;;;;5073469;28;20375;-70
2023/09/04 00:08:19;;;;;;;;;;;20.70;69.90;;;;;;5073584;28;19960;-70
2023/09/04 00:10:45;;;;;;;;;;;20.70;69.80;;;;;;5072557;28;20379;-70
2023/09/04 00:13:12;;;;;;;;;;;20.70;69.70;;;;;;5073236;28;19989;-70
2023/09/04 00:15:38;;;;;;;;;;;20.70;69.50;;;;;;5072970;28;20517;-70
2023/09/04 00:18:05;;;;;;;;;;;20.70;69.50;;;;;;5073145;28;20339;-70
2023/09/04 00:20:31;;;;;;;;;;;20.80;69.20;;;;;;5072085;28;20388;-70
2023/09/04 00:22:57;;;;;;;;;;;20.70;69.40;;;;;;5072932;28;19921;-70
2023/09/04 00:25:23;;;;;;;;;;;20.80;69.40;;;;;;5072649;28;19922;-70
2023/09/04 00:27:49;;;;;;;;;;;20.70;69.30;;;;;;5074382;28;19951;-70
2023/09/04 00:30:15;;;;;;;;;;;20.70;69.40;;;;;;5072071;28;19923;-70
2023/09/04 00:32:41;;;;;;;;;;;20.80;68.90;;;;;;5056337;28;19912;-70
2023/09/04 00:35:07;;;;;;;;;;;20.80;68.60;;;;;;5072710;28;19961;-70
2023/09/04 00:37:33;;;;;;;;;;;20.80;68.30;;;;;;5072875;28;19958;-70
2023/09/04 00:39:59;;;;;;;;;;;20.80;67.40;;;;;;5073944;28;19912;-70
2023/09/04 00:42:29;;;;;;;;;;;20.80;67.70;;;;;;5071728;28;19916;-69
2023/09/04 00:44:55;;;;;;;;;;;20.80;67.20;;;;;;5072796;28;19920;-70
2023/09/04 00:47:23;;;;;;;;;;;20.90;67.20;;;;;;5055492;28;20393;-69
2023/09/04 00:49:50;;;;;;;;;;;20.90;66.60;;;;;;5072383;28;19920;-70
2023/09/04 00:52:16;;;;;;;;;;;20.90;66.30;;;;;;5071828;28;19920;-69
2023/09/04 00:54:42;;;;;;;;;;;20.90;65.50;;;;;;5072605;28;19920;-69
2023/09/04 00:57:10;;;;;;;;;;;20.90;65.70;;;;;;5072068;28;19917;-70
2023/09/04 00:59:36;;;;;;;;;;;20.90;65.50;;;;;;5055850;28;19968;-69
2023/09/04 01:02:04;;;;;;;;;;;20.90;65.50;;;;;;5071528;28;19938;-69
2023/09/04 01:04:30;;;;;;;;;;;20.90;65.40;;;;;;5072079;28;20373;-69
2023/09/04 01:06:57;;;;;;;;;;;20.90;65.70;;;;;;5071974;28;19961;-70
2023/09/04 01:09:23;;;;;;;;;;;20.90;65.50;;;;;;5073665;28;19920;-69
2023/09/04 01:12:14;;;;;;;;;;;20.90;65.40;;;;;;5072444;28;19916;-69
2023/09/04 01:14:44;;;;;;;;;;;20.90;65.40;;;;;;5072166;28;19921;-70
2023/09/04 01:17:12;;;;;;;;;;;20.90;65.30;;;;;;5071674;28;19965;-70
2023/09/04 01:19:39;;;;;;;;;;;20.90;65.40;;;;;;5073586;28;19966;-69
2023/09/04 01:22:25;;;;;;;;;;;20.90;65.40;;;;;;5070900;28;19916;-70
2023/09/04 01:24:51;;;;;;;;;;;20.90;65.50;;;;;;5072968;28;19924;-69
2023/09/04 01:27:39;;;;;;;;;;;20.90;65.70;;;;;;5071338;28;20365;-70
2023/09/04 01:30:43;;;;;;;;;;;20.80;65.60;;;;;;5071151;28;19978;-69
2023/09/04 01:33:11;;;;;;;;;;;20.70;65.80;;;;;;5073000;28;19966;-70
2023/09/04 01:35:38;;;;;;;;;;;20.70;65.80;;;;;;5071328;28;19912;-70
2023/09/04 01:38:04;;;;;;;;;;;20.70;65.70;;;;;;5071694;28;20281;-69
2023/09/04 01:40:30;;;;;;;;;;;20.70;65.50;;;;;;5070520;28;19923;-70
2023/09/04 01:42:56;;;;;;;;;;;20.70;65.50;;;;;;5071547;28;19920;-69
2023/09/04 01:45:22;;;;;;;;;;;20.70;65.50;;;;;;5072471;28;20015;-69
2023/09/04 01:47:47;;;;;;;;;;;20.60;65.40;;;;;;5072742;28;19924;-69
2023/09/04 01:50:13;;;;;;;;;;;20.60;65.60;;;;;;5070353;28;19912;-70
2023/09/04 01:52:40;;;;;;;;;;;20.50;65.70;;;;;;5071503;28;20351;-69
2023/09/04 01:55:06;;;;;;;;;;;20.50;65.70;;;;;;5072532;28;20415;-69
2023/09/04 01:57:32;;;;;;;;;;;20.50;65.30;;;;;;5072423;28;19922;-69
2023/09/04 01:59:58;;;;;;;;;;;20.50;66.10;;;;;;5072446;28;19939;-69
2023/09/04 02:02:24;;;;;;;;;;;20.40;66.20;;;;;;5069755;28;19917;-69
2023/09/04 02:04:50;;;;;;;;;;;20.40;66.40;;;;;;5072755;28;20015;-69
2023/09/04 02:07:16;;;;;;;;;;;20.30;66.40;;;;;;5071039;28;19922;-69
2023/09/04 02:09:42;;;;;;;;;;;20.30;66.60;;;;;;5071385;28;20201;-69
2023/09/04 02:12:08;;;;;;;;;;;20.30;66.60;;;;;;5070271;28;19916;-69
2023/09/04 02:14:34;;;;;;;;;;;20.20;66.60;;;;;;5054649;28;20007;-69
2023/09/04 02:17:00;;;;;;;;;;;20.20;66.70;;;;;;5071894;28;19957;-69
2023/09/04 02:19:25;;;;;;;;;;;20.20;66.80;;;;;;5072096;28;19920;-70
2023/09/04 02:21:51;;;;;;;;;;;20.20;67.10;;;;;;5070002;28;19923;-69
2023/09/04 02:24:17;;;;;;;;;;;20.20;67.10;;;;;;5072361;28;19920;-69
2023/09/04 02:26:43;;;;;;;;;;;20.10;67.40;;;;;;5070711;28;20003;-69
2023/09/04 02:29:09;;;;;;;;;;;20.10;67.80;;;;;;5071944;28;19924;-69
2023/09/04 02:31:35;;;;;;;;;;;20.10;68.20;;;;;;5071445;28;19923;-69
2023/09/04 02:34:02;;;;;;;;;;;20.00;67.90;;;;;;5072464;28;19928;-69
2023/09/04 02:36:28;;;;;;;;;;;20.00;67.90;;;;;;5071884;28;19912;-69
2023/09/04 02:38:55;;;;;;;;;;;20.00;68.10;;;;;;5070896;28;19921;-69
2023/09/04 02:41:21;;;;;;;;;;;20.00;68.30;;;;;;5071109;28;19925;-69
2023/09/04 02:43:47;;;;;;;;;;;19.90;68.50;;;;;;5072163;28;20380;-70
2023/09/04 02:46:13;;;;;;;;;;;19.90;68.90;;;;;;5071643;28;20480;-69
2023/09/04 02:48:39;;;;;;;;;;;19.90;69.80;;;;;;5072067;28;19920;-70
2023/09/04 02:51:05;;;;;;;;;;;19.90;69.10;;;;;;5071227;28;20046;-69
2023/09/04 02:53:32;;;;;;;;;;;19.90;69.20;;;;;;5070639;28;20520;-69
2023/09/04 02:55:58;;;;;;;;;;;19.80;69.20;;;;;;5071455;28;19920;-69
2023/09/04 02:58:24;;;;;;;;;;;19.80;69.40;;;;;;5070783;28;19920;-69
2023/09/04 03:00:50;;;;;;;;;;;19.80;69.60;;;;;;5070974;28;19965;-69
2023/09/04 03:03:19;;;;;;;;;;;19.80;69.50;;;;;;5071892;28;19923;-69
2023/09/04 03:05:46;;;;;;;;;;;19.80;69.80;;;;;;5070408;28;20306;-70
2023/09/04 03:08:12;;;;;;;;;;;19.80;69.60;;;;;;5070559;28;20012;-69
2023/09/04 03:10:38;;;;;;;;;;;19.80;69.60;;;;;;5071066;28;19965;-69
2023/09/04 03:13:04;;;;;;;;;;;19.80;70.00;;;;;;5072925;28;20011;-69
2023/09/04 03:15:30;;;;;;;;;;;19.80;69.80;;;;;;5075348;28;19962;-69
2023/09/04 03:17:55;;;;;;;;;;;19.90;70.20;;;;;;5074292;28;19916;-69
2023/09/04 03:20:22;;;;;;;;;;;19.90;70.10;;;;;;5074691;28;19916;-69
2023/09/04 03:22:48;;;;;;;;;;;19.90;70.10;;;;;;5074421;28;19989;-69
2023/09/04 03:25:14;;;;;;;;;;;19.90;70.00;;;;;;5073989;28;20415;-70
2023/09/04 03:27:40;;;;;;;;;;;19.80;70.00;;;;;;5074298;28;20365;-69
2023/09/04 03:30:07;;;;;;;;;;;19.80;70.30;;;;;;5073437;28;19977;-69
2023/09/04 03:32:33;;;;;;;;;;;19.70;70.40;;;;;;5075428;28;19974;-70
2023/09/04 03:34:59;;;;;;;;;;;19.70;70.60;;;;;;5057441;28;19912;-69
2023/09/04 03:37:25;;;;;;;;;;;19.70;70.60;;;;;;5073638;28;19938;-70
2023/09/04 03:39:50;;;;;;;;;;;19.70;70.80;;;;;;5075660;28;20353;-69
2023/09/04 03:42:16;;;;;;;;;;;19.60;71.30;;;;;;5074155;28;19920;-69
2023/09/04 03:44:42;;;;;;;;;;;19.60;70.40;;;;;;5075471;28;20365;-69
2023/09/04 03:47:09;;;;;;;;;;;19.60;70.40;;;;;;5074647;28;20448;-69
2023/09/04 03:49:35;;;;;;;;;;;19.50;70.20;;;;;;5075348;28;20317;-69
2023/09/04 03:52:01;;;;;;;;;;;19.50;70.40;;;;;;5073054;28;19923;-69
2023/09/04 03:54:29;;;;;;;;;;;19.50;70.30;;;;;;5075269;28;19931;-69
2023/09/04 03:56:55;;;;;;;;;;;19.50;70.50;;;;;;5074518;28;19974;-69
2023/09/04 03:59:21;;;;;;;;;;;19.40;70.40;;;;;;5075072;28;19952;-69
2023/09/04 04:01:47;;;;;;;;;;;19.40;70.40;;;;;;5072605;28;20291;-69
2023/09/04 04:04:13;;;;;;;;;;;19.40;70.70;;;;;;5074560;28;20388;-70
2023/09/04 04:06:39;;;;;;;;;;;19.30;70.60;;;;;;5056530;28;20355;-69
2023/09/04 04:09:06;;;;;;;;;;;19.30;70.60;;;;;;5074784;28;19967;-70
2023/09/04 04:11:35;;;;;;;;;;;19.30;70.70;;;;;;5072745;28;19944;-69
2023/09/04 04:14:01;;;;;;;;;;;19.20;70.70;;;;;;5074701;28;19995;-69
2023/09/04 04:16:28;;;;;;;;;;;19.20;70.70;;;;;;5074320;28;20456;-69
2023/09/04 04:18:53;;;;;;;;;;;19.20;70.60;;;;;;5073230;28;19926;-69
2023/09/04 04:21:19;;;;;;;;;;;19.20;70.60;;;;;;5073332;28;19920;-70
2023/09/04 04:23:45;;;;;;;;;;;19.20;70.50;;;;;;5073327;28;20015;-70
2023/09/04 04:26:11;;;;;;;;;;;19.10;70.60;;;;;;5072057;28;20388;-70
2023/09/04 04:28:37;;;;;;;;;;;19.20;70.60;;;;;;5073989;28;19924;-69
2023/09/04 04:31:03;;;;;;;;;;;19.10;70.50;;;;;;5073516;28;20011;-69
2023/09/04 04:33:29;;;;;;;;;;;19.10;70.50;;;;;;5074293;28;20015;-69
2023/09/04 04:35:55;;;;;;;;;;;19.10;70.40;;;;;;5074237;28;19963;-69
2023/09/04 04:38:20;;;;;;;;;;;19.10;70.30;;;;;;5074203;28;19930;-70
2023/09/04 04:40:46;;;;;;;;;;;19.10;70.10;;;;;;5072009;28;20011;-70
2023/09/04 04:43:14;;;;;;;;;;;19.20;70.00;;;;;;5072742;28;19921;-70
2023/09/04 04:45:40;;;;;;;;;;;19.20;70.00;;;;;;5073629;28;19959;-70
2023/09/04 04:48:06;;;;;;;;;;;19.20;69.30;;;;;;5073809;28;19962;-69
2023/09/04 04:50:32;;;;;;;;;;;19.20;69.40;;;;;;5055038;28;19921;-70
2023/09/04 04:52:58;;;;;;;;;;;19.20;70.00;;;;;;5072415;28;19947;-69
2023/09/04 04:55:23;;;;;;;;;;;19.20;69.90;;;;;;5072228;28;19999;-69
2023/09/04 04:57:50;;;;;;;;;;;19.20;69.80;;;;;;5072518;28;19990;-70
2023/09/04 05:00:16;;;;;;;;;;;19.30;69.70;;;;;;5054746;28;19919;-70
2023/09/04 05:02:42;;;;;;;;;;;19.20;68.80;;;;;;5073654;28;20291;-70
2023/09/04 05:05:08;;;;;;;;;;;19.30;69.40;;;;;;5071932;28;20270;-69
2023/09/04 05:07:34;;;;;;;;;;;19.30;69.60;;;;;;5072322;28;19919;-70
2023/09/04 05:10:00;;;;;;;;;;;19.30;69.50;;;;;;5073468;28;20003;-69
2023/09/04 05:12:26;;;;;;;;;;;19.30;69.20;;;;;;5071017;28;19920;-70
2023/09/04 05:14:52;;;;;;;;;;;19.30;69.30;;;;;;5073565;28;20042;-69
2023/09/04 05:17:18;;;;;;;;;;;19.30;69.40;;;;;;5072848;28;20288;-69
2023/09/04 05:19:44;;;;;;;;;;;19.30;69.20;;;;;;5071920;28;20373;-69
2023/09/04 05:22:10;;;;;;;;;;;19.40;68.80;;;;;;5054199;28;19965;-69
2023/09/04 05:24:36;;;;;;;;;;;19.40;68.60;;;;;;5072067;28;19924;-70
2023/09/04 05:27:03;;;;;;;;;;;19.50;68.50;;;;;;5071513;28;20397;-69
2023/09/04 05:29:29;;;;;;;;;;;19.50;67.80;;;;;;5065522;28;20018;-69
2023/09/04 05:31:56;;;;;;;;;;;19.50;67.20;;;;;;5070791;28;20431;-69
2023/09/04 05:34:22;;;;;;;;;;;19.60;67.60;;;;;;5071705;28;20162;-69
2023/09/04 05:36:47;;;;;;;;;;;19.70;67.10;;;;;;5071624;28;19912;-69
2023/09/04 05:39:13;;;;;;;;;;;19.60;66.50;;;;;;5071710;28;19930;-69
2023/09/04 05:41:39;;;;;;;;;;;19.70;66.50;;;;;;5072018;28;19923;-70
2023/09/04 05:44:05;;;;;;;;;;;19.70;66.40;;;;;;5073639;28;20327;-70
2023/09/04 05:46:31;;;;;;;;;;;19.70;66.10;;;;;;5071585;28;19912;-70
2023/09/04 05:48:57;;;;;;;;;;;19.70;65.90;;;;;;5073529;28;19947;-69
2023/09/04 05:51:23;;;;;;;;;;;19.80;65.60;;;;;;5071265;28;19920;-69
2023/09/04 05:54:08;;;;;;;;;;;19.80;65.40;;;;;;5071881;28;19920;-69
2023/09/04 05:56:33;;;;;;;;;;;19.80;65.00;;;;;;5054700;28;20442;-69
2023/09/04 05:59:00;;;;;;;;;;;19.90;65.00;;;;;;5072682;28;19924;-70
2023/09/04 06:01:27;;;;;;;;;;;19.90;64.60;;;;;;5071881;28;19974;-70
2023/09/04 06:03:54;;;;;;;;;;;20.00;64.00;;;;;;5072666;28;19966;-70
2023/09/04 06:06:20;;;;;;;;;;;20.00;63.90;;;;;;5070878;28;20003;-69
2023/09/04 06:08:45;;;;;;;;;;;20.10;64.10;;;;;;5072556;28;19920;-70
2023/09/04 06:11:12;;;;;;;;;;;20.10;63.30;;;;;;5070360;28;19920;-70
2023/09/04 06:13:38;;;;;;;;;;;20.20;62.60;;;;;;5072416;28;19966;-70
2023/09/04 06:16:03;;;;;;;;;;;20.20;62.00;;;;;;5071989;28;19912;-69
2023/09/04 06:18:29;;;;;;;;;;;20.20;62.20;;;;;;5070933;28;19927;-70
2023/09/04 06:20:56;;;;;;;;;;;20.20;62.10;;;;;;5071342;28;19916;-70
2023/09/04 06:23:22;;;;;;;;;;;20.30;61.60;;;;;;5071028;28;20486;-70
2023/09/04 06:25:48;;;;;;;;;;;20.30;61.00;;;;;;5071860;28;19913;-69
2023/09/04 06:28:14;;;;;;;;;;;20.40;60.70;;;;;;5070825;28;19969;-69
2023/09/04 06:30:40;;;;;;;;;;;20.40;60.70;;;;;;5070101;28;19926;-70
2023/09/04 06:33:06;;;;;;;;;;;20.40;60.40;;;;;;5071064;28;19932;-70
2023/09/04 06:35:32;;;;;;;;;;;20.50;60.40;;;;;;5070571;28;19912;-70
2023/09/04 06:37:58;;;;;;;;;;;20.50;59.70;;;;;;5072100;28;19946;-70
2023/09/04 06:40:24;;;;;;;;;;;20.60;59.70;;;;;;5069497;28;20369;-70
2023/09/04 06:42:53;;;;;;;;;;;20.60;58.40;;;;;;5069556;28;20471;-70
2023/09/04 06:45:19;;;;;;;;;;;20.60;59.20;;;;;;5069314;28;19923;-69
2023/09/04 06:47:45;;;;;;;;;;;20.70;59.20;;;;;;5071255;28;19991;-70
2023/09/04 06:50:11;;;;;;;;;;;20.80;58.90;;;;;;5073773;28;20416;-70
2023/09/04 06:52:37;;;;;;;;;;;20.80;58.80;;;;;;5075964;28;20442;-70
2023/09/04 06:55:04;;;;;;;;;;;20.80;57.80;;;;;;5074796;28;19920;-70
2023/09/04 06:57:30;;;;;;;;;;;20.80;57.60;;;;;;5074543;28;19974;-70
2023/09/04 06:59:56;;;;;;;;;;;21.00;58.40;;;;;;5074670;28;19916;-69
2023/09/04 07:02:23;;;;;;;;;;;21.00;57.50;;;;;;5073665;28;19922;-70
2023/09/04 07:04:49;;;;;;;;;;;21.10;56.80;;;;;;5074843;28;19948;-69
2023/09/04 07:07:14;;;;;;;;;;;21.20;57.30;;;;;;5074216;28;19916;-69
2023/09/04 07:09:40;;;;;;;;;;;21.40;57.00;;;;;;5076043;28;20007;-70
2023/09/04 07:12:07;;;;;;;;;;;21.40;56.70;;;;;;5073678;28;20420;-70
2023/09/04 07:14:33;;;;;;;;;;;21.60;56.60;;;;;;5074327;28;20381;-70
2023/09/04 07:16:59;;;;;;;;;;;21.80;56.50;;;;;;5073888;28;19917;-70
2023/09/04 07:19:25;;;;;;;;;;;22.00;55.30;;;;;;5074424;28;19921;-70
2023/09/04 07:21:51;;;;;;;;;;;22.50;54.70;;;;;;5073094;28;19916;-70
2023/09/04 07:24:17;;;;;;;;;;;22.90;54.30;;;;;;5075742;28;19924;-70
2023/09/04 07:26:43;;;;;;;;;;;23.50;54.20;;;;;;5073738;28;19920;-70
2023/09/04 07:29:09;;;;;;;;;;;24.00;52.20;;;;;;5073952;28;19999;-70
2023/09/04 07:31:34;;;;;;;;;;;24.40;50.40;;;;;;5074478;28;19917;-71
2023/09/04 07:34:01;;;;;;;;;;;24.90;50.10;;;;;;5074052;28;19920;-70
2023/09/04 07:36:27;;;;;;;;;;;25.40;48.60;;;;;;5073791;28;19939;-70
2023/09/04 07:38:53;;;;;;;;;;;26.00;46.40;;;;;;5075162;28;19920;-70
2023/09/04 07:41:19;;;;;;;;;;;26.40;45.50;;;;;;5056399;28;19969;-70
2023/09/04 07:43:45;;;;;;;;;;;27.10;44.30;;;;;;5075502;28;19920;-70
2023/09/04 07:46:11;;;;;;;;;;;27.60;43.70;;;;;;5073566;28;20352;-69
2023/09/04 07:48:37;;;;;;;;;;;28.10;42.70;;;;;;5075323;28;19924;-71
2023/09/04 07:51:05;;;;;;;;;;;28.60;40.40;;;;;;5056276;28;20424;-70
2023/09/04 07:53:31;;;;;;;;;;;29.10;39.70;;;;;;5073833;28;20357;-70
2023/09/04 07:55:57;;;;;;;;;;;29.60;37.70;;;;;;5074584;28;19962;-71
2023/09/04 07:58:23;;;;;;;;;;;30.00;36.20;;;;;;5073611;28;19921;-70
2023/09/04 08:00:50;;;;;;;;;;;30.40;34.80;;;;;;5072843;28;19916;-70
2023/09/04 08:03:16;;;;;;;;;;;30.80;33.50;;;;;;5073457;28;19921;-71
2023/09/04 08:05:42;;;;;;;;;;;31.00;32.40;;;;;;5056415;28;19913;-71
2023/09/04 08:08:10;;;;;;;;;;;31.60;31.60;;;;;;5073309;28;19928;-70
2023/09/04 08:10:40;;;;;;;;;;;31.80;29.90;;;;;;5072457;28;20372;-70
2023/09/04 08:13:24;;;;;;;;;;;32.20;29.90;;;;;;5074888;28;19990;-70
2023/09/04 08:15:50;;;;;;;;;;;32.60;28.10;;;;;;5056097;28;20274;-70
2023/09/04 08:18:16;;;;;;;;;;;32.40;27.70;;;;;;5056445;28;19934;-70
2023/09/04 08:20:42;;;;;;;;;;;32.50;27.60;;;;;;5072194;28;20293;-70
2023/09/04 08:23:09;;;;;;;;;;;32.40;27.30;;;;;;5072993;28;20011;-71
2023/09/04 08:25:36;;;;;;;;;;;32.10;27.20;;;;;;5072589;28;19923;-70
2023/09/04 08:28:03;;;;;;;;;;;32.20;27.10;;;;;;5073058;28;20058;-71
2023/09/04 08:30:29;;;;;;;;;;;32.10;27.30;;;;;;5055088;28;20019;-70
2023/09/04 08:32:55;;;;;;;;;;;32.00;27.10;;;;;;5074317;28;19920;-71
2023/09/04 08:35:21;;;;;;;;;;;31.80;26.30;;;;;;5072605;28;19916;-71
2023/09/04 08:37:47;;;;;;;;;;;31.70;26.50;;;;;;5073043;28;20436;-71
2023/09/04 08:40:13;;;;;;;;;;;31.80;27.00;;;;;;5071958;28;19954;-70
2023/09/04 08:42:40;;;;;;;;;;;31.70;26.70;;;;;;5072911;28;20299;-71
2023/09/04 08:45:07;;;;;;;;;;;31.90;26.90;;;;;;5072517;28;19920;-71
2023/09/04 08:47:54;;;;;;;;;;;32.60;26.70;;;;;;5072767;28;19912;-70
2023/09/04 08:50:21;;;;;;;;;;;33.50;26.20;;;;;;5071633;28;20313;-70
2023/09/04 08:52:49;;;;;;;;;;;34.20;25.50;;;;;;5072750;28;19920;-70
2023/09/04 08:55:15;;;;;;;;;;;35.00;24.60;;;;;;5072025;28;19916;-71
2023/09/04 08:57:42;;;;;;;;;;;35.70;23.30;;;;;;5072635;28;19912;-71
2023/09/04 09:00:10;;;;;;;;;;;36.40;23.50;;;;;;5073011;28;19916;-70
2023/09/04 09:02:37;;;;;;;;;;;36.80;22.10;;;;;;5073503;28;19922;-71
2023/09/04 09:05:04;;;;;;;;;;;37.20;21.40;;;;;;5051637;28;19917;-71
2023/09/04 09:07:30;;;;;;;;;;;37.40;20.70;;;;;;5052040;28;19923;-71
2023/09/04 09:10:01;;;;;;;;;;;37.80;20.20;;;;;;5052561;28;19913;-71
2023/09/04 09:12:27;;;;;;;;;;;38.50;20.00;;;;;;5051054;28;19927;-71
2023/09/04 09:14:53;;;;;;;;;;;38.90;19.00;;;;;;5052289;28;19917;-72
2023/09/04 09:17:19;;;;;;;;;;;39.20;19.40;;;;;;5053147;28;19920;-72
2023/09/04 09:19:45;;;;;;;;;;;39.70;18.70;;;;;;5053676;28;20261;-71
2023/09/04 09:22:12;;;;;;;;;;;40.00;18.90;;;;;;5052394;28;19921;-72
2023/09/04 09:25:15;;;;;;;;;;;40.50;18.40;;;;;;5052252;28;19921;-71
2023/09/04 09:27:44;;;;;;;;;;;41.30;18.20;;;;;;5053289;28;20361;-70
2023/09/04 09:30:10;;;;;;;;;;;41.80;16.50;;;;;;5034282;28;19917;-71
2023/09/04 09:32:36;;;;;;;;;;;42.30;16.20;;;;;;5035248;28;19940;-71
2023/09/04 09:35:02;;;;;;;;;;;42.80;15.90;;;;;;5052990;28;19939;-72
2023/09/04 09:37:47;;;;;;;;;;;42.80;14.90;;;;;;5054265;28;19917;-72
2023/09/04 09:40:14;;;;;;;;;;;43.00;14.70;;;;;;5051396;28;19991;-71
2023/09/04 09:43:00;;;;;;;;;;;42.80;14.10;;;;;;5034876;28;20370;-72
2023/09/04 09:45:31;;;;;;;;;;;42.40;14.10;;;;;;5051139;28;20003;-71
2023/09/04 09:47:57;;;;;;;;;;;42.70;14.70;;;;;;5051524;28;20015;-72
2023/09/04 09:50:24;;;;;;;;;;;43.20;14.70;;;;;;5051833;28;19936;-72
2023/09/04 09:53:09;;;;;;;;;;;43.40;14.20;;;;;;5051659;28;19917;-71
2023/09/04 09:55:35;;;;;;;;;;;43.80;13.80;;;;;;5051240;28;20553;-71
2023/09/04 09:58:01;;;;;;;;;;;43.80;13.40;;;;;;5051550;28;19917;-71
2023/09/04 10:00:27;;;;;;;;;;;43.00;14.60;;;;;;5050632;28;19980;-71
2023/09/04 10:02:54;;;;;;;;;;;43.80;13.50;;;;;;5051346;28;19924;-70
2023/09/04 10:05:39;;;;;;;;;;;44.30;13.70;;;;;;5050912;28;19916;-70
2023/09/04 10:08:05;;;;;;;;;;;44.20;13.40;;;;;;5051380;28;19916;-72
2023/09/04 10:10:37;;;;;;;;;;;44.00;14.30;;;;;;5033636;28;19921;-72
2023/09/04 10:13:22;;;;;;;;;;;44.70;13.10;;;;;;5051135;28;20281;-71
2023/09/04 10:15:51;;;;;;;;;;;44.80;13.30;;;;;;5050625;28;19963;-72
2023/09/04 10:18:41;;;;;;;;;;;45.00;13.30;;;;;;5051127;28;20171;-72
2023/09/04 10:21:09;;;;;;;;;;;44.90;13.10;;;;;;5051272;28;19924;-72
2023/09/04 10:23:58;;;;;;;;;;;45.10;13.50;;;;;;5051294;28;19929;-72
2023/09/04 10:26:27;;;;;;;;;;;45.40;13.00;;;;;;5070614;28;19949;-71
2023/09/04 10:29:16;;;;;;;;;;;46.10;12.60;;;;;;5070260;28;19924;-71
2023/09/04 10:31:43;;;;;;;;;;;46.10;12.50;;;;;;5070148;28;20015;-71
2023/09/04 10:34:09;;;;;;;;;;;46.50;12.50;;;;;;5072547;28;19920;-72
2023/09/04 10:36:37;;;;;;;;;;;46.80;11.90;;;;;;5070749;28;19913;-72
2023/09/04 10:39:03;;;;;;;;;;;45.90;12.20;;;;;;5071311;28;20473;-72
2023/09/04 10:41:30;;;;;;;;;;;46.00;12.70;;;;;;5069926;28;19924;-72
2023/09/04 10:43:56;;;;;;;;;;;46.00;13.00;;;;;;5070697;28;19924;-72
2023/09/04 10:46:23;;;;;;;;;;;46.40;12.30;;;;;;5054106;28;19919;-72
2023/09/04 10:48:50;;;;;;;;;;;46.70;11.60;;;;;;5072521;28;20383;-72
2023/09/04 10:51:36;;;;;;;;;;;47.10;12.10;;;;;;5070244;28;19924;-71
2023/09/04 10:54:17;;;;;;;;;;;46.20;12.40;;;;;;5070835;28;20353;-72
2023/09/04 10:57:05;;;;;;;;;;;45.10;12.60;;;;;;5070422;28;20006;-72
2023/09/04 11:00:10;;;;;;;;;;;44.60;13.50;;;;;;5070965;28;20364;-72
2023/09/04 11:02:36;;;;;;;;;;;45.90;12.60;;;;;;5071520;28;19916;-71
2023/09/04 11:05:03;;;;;;;;;;;46.70;12.10;;;;;;5071853;28;19918;-71
2023/09/04 11:07:30;;;;;;;;;;;44.80;12.70;;;;;;5070455;28;19935;-71
2023/09/04 11:10:18;;;;;;;;;;;43.30;14.40;;;;;;5053684;28;19921;-71
2023/09/04 11:12:45;;;;;;;;;;;43.40;14.30;;;;;;5070462;28;20399;-72
2023/09/04 11:15:14;;;;;;;;;;;45.00;13.90;;;;;;5070003;28;19917;-71
2023/09/04 11:17:42;;;;;;;;;;;46.30;12.10;;;;;;5070541;28;20414;-71
2023/09/04 11:20:28;;;;;;;;;;;47.50;12.00;;;;;;5069500;28;19926;-71
2023/09/04 11:22:55;;;;;;;;;;;48.60;11.00;;;;;;5070473;28;19961;-72
2023/09/04 11:25:22;;;;;;;;;;;48.90;11.00;;;;;;5070089;28;19917;-72
2023/09/04 11:27:48;;;;;;;;;;;48.90;10.40;;;;;;5071646;28;19916;-72
2023/09/04 11:30:14;;;;;;;;;;;49.50;10.20;;;;;;5069386;28;20276;-71
2023/09/04 11:32:40;;;;;;;;;;;50.20;9.90;;;;;;5070259;28;19960;-71
2023/09/04 11:35:26;;;;;;;;;;;50.60;9.00;;;;;;5072474;28;20318;-71
2023/09/04 11:37:52;;;;;;;;;;;50.40;9.50;;;;;;5075279;28;19925;-72
2023/09/04 11:40:18;;;;;;;;;;;50.40;9.30;;;;;;5074366;28;19973;-72
2023/09/04 11:42:46;;;;;;;;;;;50.10;9.80;;;;;;5073894;28;19944;-72
2023/09/04 11:45:12;;;;;;;;;;;48.80;10.40;;;;;;5074568;28;19961;-71
2023/09/04 11:47:38;;;;;;;;;;;47.40;11.30;;;;;;5074019;28;20349;-72
2023/09/04 11:50:04;;;;;;;;;;;47.10;10.90;;;;;;5073118;28;19923;-72
2023/09/04 11:52:30;;;;;;;;;;;47.20;11.40;;;;;;5074638;28;20383;-72
2023/09/04 11:54:56;;;;;;;;;;;47.20;10.70;;;;;;5056923;28;20304;-71
2023/09/04 11:57:22;;;;;;;;;;;47.60;10.80;;;;;;5074477;28;19938;-72
2023/09/04 11:59:48;;;;;;;;;;;46.80;11.40;;;;;;5073690;28;19952;-71
2023/09/04 12:02:14;;;;;;;;;;;46.70;11.50;;;;;;5055988;28;20388;-72
2023/09/04 12:04:40;;;;;;;;;;;47.20;11.40;;;;;;5073627;28;19963;-72
2023/09/04 12:07:07;;;;;;;;;;;48.00;11.30;;;;;;5074367;28;19913;-72
2023/09/04 12:09:36;;;;;;;;;;;48.90;10.40;;;;;;5057046;28;19946;-72
2023/09/04 12:12:03;;;;;;;;;;;48.60;10.10;;;;;;5072359;28;20014;-72
2023/09/04 12:14:29;;;;;;;;;;;47.10;10.90;;;;;;5073603;28;20002;-71
2023/09/04 12:16:55;;;;;;;;;;;47.00;10.80;;;;;;5074279;28;20420;-71
2023/09/04 12:19:23;;;;;;;;;;;47.90;10.80;;;;;;5073392;28;20007;-71
2023/09/04 12:21:49;;;;;;;;;;;48.90;9.90;;;;;;5055540;28;19916;-71
2023/09/04 12:24:17;;;;;;;;;;;49.80;9.40;;;;;;5073256;28;19943;-72
2023/09/04 12:26:43;;;;;;;;;;;48.80;9.50;;;;;;5072895;28;19912;-72
2023/09/04 12:29:09;;;;;;;;;;;49.50;9.10;;;;;;5072684;28;19920;-72
2023/09/04 12:31:36;;;;;;;;;;;49.60;9.10;;;;;;5072281;28;20383;-72
2023/09/04 12:34:03;;;;;;;;;;;49.80;9.10;;;;;;5073085;28;20411;-71
2023/09/04 12:36:49;;;;;;;;;;;50.40;9.10;;;;;;5072566;28;20005;-72
2023/09/04 12:39:15;;;;;;;;;;;50.80;8.00;;;;;;5074036;28;19921;-72
2023/09/04 12:41:41;;;;;;;;;;;51.60;8.60;;;;;;5071902;28;20011;-71
2023/09/04 12:44:07;;;;;;;;;;;52.10;8.70;;;;;;5072661;28;19954;-72
2023/09/04 12:46:33;;;;;;;;;;;52.10;8.20;;;;;;5071973;28;20003;-71
2023/09/04 12:48:58;;;;;;;;;;;52.00;8.30;;;;;;5072746;28;19920;-72
2023/09/04 12:51:25;;;;;;;;;;;51.40;8.40;;;;;;5073104;28;20006;-71
2023/09/04 12:53:51;;;;;;;;;;;51.50;8.70;;;;;;5074021;28;19971;-72
2023/09/04 12:56:16;;;;;;;;;;;52.10;8.70;;;;;;5072312;28;19920;-71
2023/09/04 12:58:42;;;;;;;;;;;52.40;8.40;;;;;;5073857;28;20010;-70
2023/09/04 13:01:09;;;;;;;;;;;52.50;8.00;;;;;;5072797;28;20385;-72
2023/09/04 13:03:34;;;;;;;;;;;52.20;8.20;;;;;;5073680;28;19975;-72
2023/09/04 13:06:00;;;;;;;;;;;51.00;8.70;;;;;;5072024;28;19995;-72
2023/09/04 13:08:26;;;;;;;;;;;51.20;8.70;;;;;;5072303;28;19970;-71
2023/09/04 13:10:52;;;;;;;;;;;51.20;8.40;;;;;;5071313;28;20019;-72
2023/09/04 13:13:18;;;;;;;;;;;50.50;8.30;;;;;;5073441;28;20301;-71
2023/09/04 13:15:44;;;;;;;;;;;50.40;8.20;;;;;;5073430;28;20007;-71
2023/09/04 13:18:09;;;;;;;;;;;50.80;8.00;;;;;;5072052;28;20023;-72
2023/09/04 13:20:35;;;;;;;;;;;51.10;8.20;;;;;;5054424;28;19965;-71
2023/09/04 13:23:02;;;;;;;;;;;51.00;8.20;;;;;;5072283;28;20007;-72
2023/09/04 13:25:28;;;;;;;;;;;51.20;8.20;;;;;;5071530;28;20315;-71
2023/09/04 13:27:54;;;;;;;;;;;51.20;8.30;;;;;;5073047;28;20007;-71
2023/09/04 13:30:20;;;;;;;;;;;51.40;7.90;;;;;;5071124;28;19923;-72
2023/09/04 13:32:46;;;;;;;;;;;51.30;7.90;;;;;;5073281;28;20019;-71
2023/09/04 13:35:12;;;;;;;;;;;51.20;7.80;;;;;;5071189;28;20430;-71
2023/09/04 13:37:37;;;;;;;;;;;50.90;7.30;;;;;;5072161;28;19923;-72
2023/09/04 13:40:05;;;;;;;;;;;51.40;8.00;;;;;;5071098;28;19995;-71
2023/09/04 13:42:32;;;;;;;;;;;51.30;7.30;;;;;;5071517;28;19999;-71
2023/09/04 13:44:58;;;;;;;;;;;51.20;7.30;;;;;;5054768;28;19952;-71
2023/09/04 13:47:25;;;;;;;;;;;50.90;7.00;;;;;;5049109;28;20373;-72
2023/09/04 13:49:53;;;;;;;;;;;51.30;7.70;;;;;;5052641;28;19924;-72
2023/09/04 13:52:19;;;;;;;;;;;51.70;7.40;;;;;;5050639;28;19916;-71
2023/09/04 13:54:45;;;;;;;;;;;51.60;7.40;;;;;;5053102;28;20000;-71
2023/09/04 13:57:12;;;;;;;;;;;51.70;7.60;;;;;;5051442;28;19913;-72
2023/09/04 13:59:38;;;;;;;;;;;51.70;7.50;;;;;;5052784;28;19951;-71
2023/09/04 14:02:03;;;;;;;;;;;51.40;7.90;;;;;;5033702;28;19917;-72
2023/09/04 14:04:29;;;;;;;;;;;51.30;7.80;;;;;;5053019;28;19975;-72
2023/09/04 14:06:55;;;;;;;;;;;51.50;7.70;;;;;;5050995;28;20007;-72
2023/09/04 14:09:21;;;;;;;;;;;51.40;7.90;;;;;;5052797;28;20016;-72
2023/09/04 14:11:47;;;;;;;;;;;51.60;7.30;;;;;;5050416;28;19921;-72
2023/09/04 14:14:15;;;;;;;;;;;51.40;7.20;;;;;;5052677;28;19930;-71
2023/09/04 14:16:41;;;;;;;;;;;51.30;7.40;;;;;;5051989;28;19917;-72
2023/09/04 14:19:06;;;;;;;;;;;50.90;7.10;;;;;;5034323;28;19990;-71
2023/09/04 14:21:33;;;;;;;;;;;50.60;7.20;;;;;;5051274;28;19984;-71
2023/09/04 14:23:59;;;;;;;;;;;50.50;7.40;;;;;;5052349;28;19921;-71